Time;durP1;ratioP1;P1;durP2;ratioP2;P2;SDS_P1;SDS_P2;PMS_P1;PMS_P2;Temp;Humidity;BMP_temperature;BMP_pressure;BME280_temperature;BME280_humidity;BME280_pressure;Samples;Min_cycle;Max_cycle;Signal;HPM_P1;HPM_P2
2022/08/29 00:01:00;;;;;;;8.93;8.13;;;21.00;20.10;;;;;;5055049;28;20490;-86
2022/08/29 00:03:27;;;;;;;8.93;7.82;;;21.00;14.50;;;;;;5055150;28;20105;-86
2022/08/29 00:05:53;;;;;;;9.35;8.52;;;20.80;17.80;;;;;;5054852;28;20029;-87
2022/08/29 00:08:19;;;;;;;8.55;7.78;;;20.80;14.50;;;;;;5054590;28;20032;-87
2022/08/29 00:10:45;;;;;;;8.80;7.90;;;20.70;14.20;;;;;;5054814;28;20375;-87
2022/08/29 00:13:13;;;;;;;9.30;8.40;;;20.70;15.60;;;;;;5055033;28;20029;-87
2022/08/29 00:15:39;;;;;;;8.45;7.75;;;20.80;17.80;;;;;;5054560;28;20037;-88
2022/08/29 00:18:06;;;;;;;9.32;8.52;;;20.80;18.90;;;;;;5054779;28;20127;-87
2022/08/29 00:20:33;;;;;;;8.90;8.10;;;20.70;14.00;;;;;;5054665;28;20418;-86
2022/08/29 00:22:59;;;;;;;9.00;7.97;;;20.70;19.90;;;;;;5054357;28;20103;-87
2022/08/29 00:25:25;;;;;;;8.38;7.63;;;20.70;10.20;;;;;;5054709;28;20104;-87
2022/08/29 00:27:51;;;;;;;8.55;7.80;;;20.60;12.70;;;;;;5054580;28;20025;-87
2022/08/29 00:30:18;;;;;;;9.30;8.40;;;20.50;14.90;;;;;;5054114;28;20052;-87
2022/08/29 00:32:44;;;;;;;9.65;8.75;;;20.50;17.30;;;;;;5053174;28;20029;-87
2022/08/29 00:35:16;;;;;;;8.98;8.10;;;20.40;12.50;;;;;;5054526;28;20425;-87
2022/08/29 00:37:41;;;;;;;10.73;8.40;;;20.40;15.70;;;;;;5053927;28;20078;-87
2022/08/29 00:40:11;;;;;;;9.07;8.18;;;20.30;12.40;;;;;;5054392;28;20028;-87
2022/08/29 00:42:37;;;;;;;8.77;7.85;;;20.30;17.00;;;;;;5054247;28;20020;-87
2022/08/29 00:45:06;;;;;;;8.68;7.88;;;20.20;18.80;;;;;;5054231;28;20025;-87
2022/08/29 00:47:37;;;;;;;10.40;8.98;;;20.30;18.00;;;;;;5054231;28;20440;-87
2022/08/29 00:50:07;;;;;;;8.98;8.23;;;20.30;17.00;;;;;;5054292;28;20067;-87
2022/08/29 00:52:42;;;;;;;9.30;8.30;;;20.40;19.70;;;;;;5053905;28;20045;-87
2022/08/29 00:55:15;;;;;;;9.40;8.60;;;20.40;18.50;;;;;;5054140;28;20028;-87
2022/08/29 00:57:43;;;;;;;9.30;8.40;;;20.30;19.10;;;;;;5053931;28;20493;-87
2022/08/29 01:00:12;;;;;;;9.80;8.80;;;20.30;19.60;;;;;;5054024;28;20078;-87
2022/08/29 01:02:40;;;;;;;8.38;7.68;;;20.30;17.50;;;;;;5053832;28;20081;-87
2022/08/29 01:05:07;;;;;;;8.57;7.88;;;20.40;20.40;;;;;;5053861;28;20446;-87
2022/08/29 01:07:33;;;;;;;8.55;7.75;;;20.50;20.90;;;;;;5053662;28;20047;-87
2022/08/29 01:09:59;;;;;;;9.13;8.32;;;20.50;16.00;;;;;;5053866;28;20033;-87
2022/08/29 01:12:26;;;;;;;9.23;8.32;;;20.40;18.30;;;;;;5053620;28;20044;-87
2022/08/29 01:14:54;;;;;;;8.73;7.93;;;20.30;18.70;;;;;;5053575;28;20490;-87
2022/08/29 01:17:31;;;;;;;8.90;8.10;;;20.30;29.50;;;;;;5053673;28;20478;-87
2022/08/29 01:20:08;;;;;;;8.60;7.80;;;20.40;22.90;;;;;;5053279;28;20490;-87
2022/08/29 01:22:58;;;;;;;8.48;7.63;;;20.30;24.70;;;;;;5053639;28;20025;-87
2022/08/29 01:25:30;;;;;;;9.38;8.18;;;20.30;21.50;;;;;;5053554;28;20036;-87
2022/08/29 01:28:24;;;;;;;8.82;7.93;;;20.40;24.70;;;;;;5053409;28;20075;-87
2022/08/29 01:31:01;;;;;;;9.68;8.40;;;20.30;20.90;;;;;;5052990;28;20049;-87
2022/08/29 01:33:37;;;;;;;8.95;8.07;;;20.30;21.80;;;;;;5053219;28;20032;-87
2022/08/29 01:36:04;;;;;;;9.18;8.00;;;20.40;23.20;;;;;;5051691;28;20033;-87
2022/08/29 01:38:29;;;;;;;9.48;8.50;;;20.40;21.80;;;;;;5052080;28;20025;-87
2022/08/29 01:41:00;;;;;;;8.60;7.90;;;20.40;19.90;;;;;;5053200;28;20386;-87
2022/08/29 01:43:27;;;;;;;9.07;8.18;;;20.30;22.90;;;;;;5053154;28;20025;-87
2022/08/29 01:45:53;;;;;;;8.93;8.02;;;20.20;22.20;;;;;;5053164;28;20033;-87
2022/08/29 01:48:19;;;;;;;10.32;9.00;;;20.30;15.80;;;;;;5053019;28;20059;-87
2022/08/29 01:50:45;;;;;;;9.30;8.50;;;20.30;21.20;;;;;;5052557;28;20044;-87
2022/08/29 01:53:12;;;;;;;9.50;8.60;;;20.20;22.40;;;;;;5053124;28;20029;-87
2022/08/29 01:55:38;;;;;;;8.75;7.95;;;20.10;22.30;;;;;;5052914;28;20029;-87
2022/08/29 01:58:06;;;;;;;9.70;8.80;;;20.20;24.40;;;;;;5053097;28;20021;-87
2022/08/29 02:00:32;;;;;;;9.80;8.90;;;20.20;20.60;;;;;;5052392;28;20060;-87
2022/08/29 02:02:59;;;;;;;9.02;8.23;;;20.20;22.90;;;;;;5052812;28;20033;-87
2022/08/29 02:05:26;;;;;;;9.10;8.30;;;20.10;22.80;;;;;;5052475;28;20103;-87
2022/08/29 02:07:52;;;;;;;9.63;8.73;;;20.00;27.40;;;;;;5052719;28;20075;-87
2022/08/29 02:10:18;;;;;;;9.60;8.75;;;20.10;28.70;;;;;;5051381;28;20021;-87
2022/08/29 02:12:44;;;;;;;10.35;9.30;;;20.10;25.70;;;;;;5052774;28;20087;-87
2022/08/29 02:15:10;;;;;;;9.93;8.93;;;20.10;24.80;;;;;;5052439;28;20029;-87
2022/08/29 02:17:37;;;;;;;9.93;9.10;;;20.00;23.90;;;;;;5052324;28;20052;-88
2022/08/29 02:20:06;;;;;;;10.40;9.50;;;20.00;26.60;;;;;;5052607;28;20108;-87
2022/08/29 02:22:32;;;;;;;11.35;9.40;;;20.10;32.90;;;;;;5051250;28;20501;-87
2022/08/29 02:24:58;;;;;;;10.60;9.60;;;20.00;28.30;;;;;;5052630;28;20021;-87
2022/08/29 02:27:24;;;;;;;10.48;9.48;;;19.80;27.20;;;;;;5052541;28;20028;-87
2022/08/29 02:29:49;;;;;;;10.27;9.27;;;19.60;26.80;;;;;;5052140;28;20146;-87
2022/08/29 02:32:15;;;;;;;10.15;9.20;;;19.60;18.30;;;;;;5050659;28;20409;-87
2022/08/29 02:34:44;;;;;;;9.93;9.02;;;19.60;18.60;;;;;;5052520;28;20040;-87
2022/08/29 02:37:09;;;;;;;10.30;9.30;;;19.60;20.30;;;;;;5052500;28;20103;-87
2022/08/29 02:39:35;;;;;;;10.15;9.23;;;19.60;22.40;;;;;;5052416;28;20053;-87
2022/08/29 02:42:01;;;;;;;10.88;9.77;;;19.50;22.20;;;;;;5051007;28;20025;-87
2022/08/29 02:44:27;;;;;;;9.85;9.05;;;19.40;22.80;;;;;;5052493;28;20025;-87
2022/08/29 02:46:53;;;;;;;10.10;9.05;;;19.50;18.10;;;;;;5052059;28;20025;-87
2022/08/29 02:49:19;;;;;;;9.43;8.57;;;19.50;17.30;;;;;;5052392;28;20082;-87
2022/08/29 02:51:44;;;;;;;9.60;8.70;;;19.60;19.30;;;;;;5052125;28;20051;-87
2022/08/29 02:54:11;;;;;;;9.98;9.10;;;19.60;19.60;;;;;;5052173;28;20031;-87
2022/08/29 02:56:37;;;;;;;9.48;8.68;;;19.60;18.10;;;;;;5052265;28;20029;-87
2022/08/29 02:59:03;;;;;;;9.60;8.70;;;19.60;20.80;;;;;;5052272;28;20029;-87
2022/08/29 03:01:30;;;;;;;9.57;8.70;;;19.60;18.70;;;;;;5051823;28;20413;-87
2022/08/29 03:03:55;;;;;;;9.77;8.88;;;19.40;24.30;;;;;;5052100;28;20043;-87
2022/08/29 03:06:21;;;;;;;8.70;7.85;;;19.40;19.00;;;;;;5052293;28;20025;-87
2022/08/29 03:08:47;;;;;;;9.95;8.77;;;19.40;22.10;;;;;;5052257;28;20513;-87
2022/08/29 03:11:14;;;;;;;10.68;8.75;;;19.30;21.80;;;;;;5051889;28;20029;-86
2022/08/29 03:13:40;;;;;;;10.05;9.23;;;19.20;27.50;;;;;;5053914;28;20422;-87
2022/08/29 03:16:07;;;;;;;10.10;9.10;;;19.10;19.20;;;;;;5055640;28;20025;-86
2022/08/29 03:18:33;;;;;;;10.15;9.25;;;19.20;29.50;;;;;;5055821;28;20021;-87
2022/08/29 03:20:59;;;;;;;9.77;8.82;;;19.20;24.50;;;;;;5055984;28;20105;-87
2022/08/29 03:23:24;;;;;;;10.80;9.70;;;19.20;23.40;;;;;;5055827;28;20048;-87
2022/08/29 03:25:50;;;;;;;10.57;8.93;;;19.10;24.30;;;;;;5055845;28;20539;-87
2022/08/29 03:28:16;;;;;;;10.68;9.57;;;19.10;21.30;;;;;;5055848;28;20029;-87
2022/08/29 03:30:41;;;;;;;9.90;9.05;;;19.00;19.40;;;;;;5053608;28;20140;-87
2022/08/29 03:33:07;;;;;;;10.55;9.45;;;19.10;20.90;;;;;;5055763;28;20028;-87
2022/08/29 03:35:33;;;;;;;10.15;9.15;;;18.90;18.10;;;;;;5055543;28;20075;-87
2022/08/29 03:37:58;;;;;;;11.38;10.18;;;18.80;18.50;;;;;;5055646;28;20025;-87
2022/08/29 03:40:24;;;;;;;11.75;9.73;;;18.80;18.60;;;;;;5055503;28;20029;-87
2022/08/29 03:42:51;;;;;;;11.18;10.07;;;18.80;19.40;;;;;;5055456;28;20151;-87
2022/08/29 03:45:18;;;;;;;11.00;9.90;;;18.80;19.70;;;;;;5053975;28;20021;-87
2022/08/29 03:47:43;;;;;;;10.23;9.15;;;18.90;23.10;;;;;;5055472;28;20363;-87
2022/08/29 03:50:10;;;;;;;10.40;9.40;;;18.90;21.50;;;;;;5055327;28;20028;-87
2022/08/29 03:52:36;;;;;;;10.90;9.88;;;18.80;23.70;;;;;;5055292;28;20029;-87
2022/08/29 03:55:05;;;;;;;10.48;9.38;;;18.80;19.70;;;;;;5053929;28;20039;-87
2022/08/29 03:57:31;;;;;;;10.30;9.40;;;18.70;23.60;;;;;;5055233;28;20029;-87
2022/08/29 03:59:58;;;;;;;10.57;9.57;;;18.70;21.40;;;;;;5054806;28;20029;-87
2022/08/29 04:02:23;;;;;;;10.90;9.80;;;18.70;23.90;;;;;;5055131;28;20067;-87
2022/08/29 04:05:07;;;;;;;9.95;9.05;;;18.80;21.10;;;;;;5055081;28;20021;-87
2022/08/29 04:07:46;;;;;;;10.30;9.27;;;18.80;24.00;;;;;;5054983;28;20025;-87
2022/08/29 04:10:16;;;;;;;12.75;9.77;;;18.90;24.30;;;;;;5054833;28;20392;-86
2022/08/29 04:12:42;;;;;;;9.90;9.00;;;18.80;25.50;;;;;;5054987;28;20025;-87
2022/08/29 04:15:08;;;;;;;9.93;9.02;;;19.00;20.80;;;;;;5054400;28;20102;-87
2022/08/29 04:17:34;;;;;;;10.10;9.13;;;19.00;21.40;;;;;;5053592;28;20120;-87
2022/08/29 04:20:01;;;;;;;10.55;8.93;;;19.00;24.30;;;;;;5054840;28;20052;-87
2022/08/29 04:22:26;;;;;;;9.45;8.52;;;19.10;23.40;;;;;;5053478;28;20055;-87
2022/08/29 04:24:52;;;;;;;9.70;8.75;;;19.10;20.90;;;;;;5054273;28;20052;-86
2022/08/29 04:27:18;;;;;;;10.45;8.95;;;19.10;21.10;;;;;;5054721;28;20088;-87
2022/08/29 04:29:47;;;;;;;9.13;8.23;;;19.20;20.30;;;;;;5053897;28;20029;-87
2022/08/29 04:32:13;;;;;;;10.85;8.93;;;19.20;25.40;;;;;;5054312;28;20053;-87
2022/08/29 04:34:39;;;;;;;9.07;8.18;;;19.30;22.80;;;;;;5054569;28;20079;-87
2022/08/29 04:37:04;;;;;;;9.93;9.02;;;19.20;17.80;;;;;;5054450;28;20033;-87
2022/08/29 04:39:30;;;;;;;10.35;9.35;;;19.20;20.20;;;;;;5054424;28;20021;-87
2022/08/29 04:41:55;;;;;;;12.07;9.23;;;19.10;21.20;;;;;;5053021;28;20456;-87
2022/08/29 04:44:21;;;;;;;9.95;8.93;;;19.00;21.60;;;;;;5053905;28;20036;-87
2022/08/29 04:46:47;;;;;;;10.60;9.40;;;18.90;27.20;;;;;;5054222;28;20036;-87
2022/08/29 04:49:12;;;;;;;10.40;9.38;;;18.90;26.70;;;;;;5054368;28;20151;-86
2022/08/29 04:51:38;;;;;;;10.40;9.02;;;18.70;24.70;;;;;;5054077;28;20393;-87
2022/08/29 04:54:05;;;;;;;11.35;9.07;;;18.80;24.10;;;;;;5052907;28;20112;-87
2022/08/29 04:56:31;;;;;;;10.15;9.15;;;18.80;24.60;;;;;;5054012;28;20160;-87
2022/08/29 04:58:57;;;;;;;10.63;9.20;;;18.90;25.80;;;;;;5053910;28;20108;-87
2022/08/29 05:01:24;;;;;;;10.23;9.18;;;18.80;28.00;;;;;;5053830;28;20017;-87
2022/08/29 05:03:52;;;;;;;12.07;9.70;;;18.80;27.50;;;;;;5053935;28;20028;-87
2022/08/29 05:06:20;;;;;;;10.18;9.18;;;18.80;27.70;;;;;;5053946;28;20032;-87
2022/08/29 05:08:47;;;;;;;10.93;9.00;;;18.80;25.90;;;;;;5053718;28;20386;-87
2022/08/29 05:11:18;;;;;;;10.93;9.40;;;18.70;31.20;;;;;;5053722;28;20033;-87
2022/08/29 05:13:43;;;;;;;10.63;9.50;;;18.80;37.80;;;;;;5053134;28;20031;-87
2022/08/29 05:16:11;;;;;;;11.35;9.90;;;18.80;28.10;;;;;;5053798;28;20389;-87
2022/08/29 05:18:38;;;;;;;10.85;9.75;;;18.80;30.90;;;;;;5053672;28;20025;-87
2022/08/29 05:21:04;;;;;;;12.63;9.75;;;18.80;31.60;;;;;;5053506;28;20035;-87
2022/08/29 05:23:30;;;;;;;11.30;9.43;;;18.80;33.00;;;;;;5053672;28;20528;-87
2022/08/29 05:25:58;;;;;;;10.02;9.10;;;18.80;28.40;;;;;;5053454;28;20025;-87
2022/08/29 05:28:25;;;;;;;9.95;8.95;;;18.80;33.40;;;;;;5053208;28;20025;-87
2022/08/29 05:30:51;;;;;;;10.45;9.18;;;18.80;33.00;;;;;;5052965;28;20075;-87
2022/08/29 05:33:17;;;;;;;10.27;9.20;;;18.90;32.40;;;;;;5053424;28;20135;-88
2022/08/29 05:35:43;;;;;;;10.57;9.43;;;18.90;26.70;;;;;;5052641;28;20103;-87
2022/08/29 05:38:09;;;;;;;10.10;9.20;;;19.00;31.60;;;;;;5053248;28;20029;-87
2022/08/29 05:40:36;;;;;;;10.40;9.50;;;19.10;33.60;;;;;;5053322;28;20397;-87
2022/08/29 05:43:02;;;;;;;10.27;9.27;;;19.20;37.80;;;;;;5051883;28;20025;-87
2022/08/29 05:45:28;;;;;;;9.85;8.85;;;19.30;36.70;;;;;;5053174;28;20025;-87
2022/08/29 05:47:55;;;;;;;10.48;9.48;;;19.30;32.70;;;;;;5051781;28;20032;-86
2022/08/29 05:50:21;;;;;;;10.50;9.40;;;19.30;35.40;;;;;;5052895;28;20053;-87
2022/08/29 05:52:46;;;;;;;13.57;10.60;;;19.30;32.00;;;;;;5053072;28;20032;-87
2022/08/29 05:55:12;;;;;;;10.35;9.35;;;19.30;32.80;;;;;;5052947;28;20032;-86
2022/08/29 05:57:38;;;;;;;11.23;9.60;;;19.40;32.10;;;;;;5052865;28;20108;-87
2022/08/29 06:00:06;;;;;;;9.50;8.60;;;19.40;33.20;;;;;;5052925;28;20504;-87
2022/08/29 06:02:32;;;;;;;11.00;9.60;;;19.50;37.90;;;;;;5052990;28;20424;-87
2022/08/29 06:04:58;;;;;;;10.63;9.07;;;19.70;25.40;;;;;;5052808;28;20029;-87
2022/08/29 06:07:24;;;;;;;9.93;9.00;;;19.80;27.40;;;;;;5052883;28;20541;-87
2022/08/29 06:09:51;;;;;;;9.73;8.85;;;19.90;29.00;;;;;;5052178;28;20024;-87
2022/08/29 06:12:18;;;;;;;10.05;9.05;;;20.00;28.70;;;;;;5052705;28;20037;-87
2022/08/29 06:14:44;;;;;;;10.15;9.15;;;20.00;25.90;;;;;;5052537;28;20382;-87
2022/08/29 06:17:10;;;;;;;9.73;8.52;;;20.20;27.00;;;;;;5052744;28;20021;-87
2022/08/29 06:19:38;;;;;;;12.07;8.77;;;20.20;28.90;;;;;;5051286;28;20025;-87
2022/08/29 06:22:05;;;;;;;9.95;8.95;;;20.40;29.70;;;;;;5052683;28;20397;-87
2022/08/29 06:24:32;;;;;;;9.57;8.77;;;20.50;28.40;;;;;;5052150;28;20032;-87
2022/08/29 06:26:58;;;;;;;11.75;8.65;;;20.50;29.60;;;;;;5052623;28;20026;-87
2022/08/29 06:29:25;;;;;;;10.55;8.43;;;20.60;30.90;;;;;;5052444;28;20021;-87
2022/08/29 06:31:52;;;;;;;9.45;8.45;;;20.70;27.40;;;;;;5052098;28;20128;-87
2022/08/29 06:34:18;;;;;;;9.63;8.68;;;20.80;33.40;;;;;;5052407;28;20025;-87
2022/08/29 06:36:43;;;;;;;9.73;8.77;;;20.90;31.10;;;;;;5052486;28;20383;-87
2022/08/29 06:39:10;;;;;;;8.73;7.93;;;21.00;27.40;;;;;;5052073;28;20108;-87
2022/08/29 06:41:38;;;;;;;11.45;9.02;;;21.00;29.40;;;;;;5052307;28;20033;-87
2022/08/29 06:44:04;;;;;;;9.98;9.07;;;21.00;29.40;;;;;;5052398;28;20061;-87
2022/08/29 06:46:32;;;;;;;12.27;8.73;;;21.10;31.10;;;;;;5052485;28;20099;-87
2022/08/29 06:48:59;;;;;;;10.20;8.77;;;21.20;32.70;;;;;;5056438;28;20029;-87
2022/08/29 06:51:25;;;;;;;10.60;8.73;;;21.30;42.10;;;;;;5056381;28;20044;-87
2022/08/29 06:53:51;;;;;;;11.05;9.32;;;21.40;33.30;;;;;;5071538;28;20025;-87
2022/08/29 06:56:18;;;;;;;10.23;9.20;;;21.40;29.90;;;;;;5056365;28;20451;-87
2022/08/29 06:58:43;;;;;;;9.75;8.75;;;21.40;30.30;;;;;;5056334;28;20071;-87
2022/08/29 07:01:12;;;;;;;9.73;8.82;;;21.60;25.80;;;;;;5056209;28;20029;-87
2022/08/29 07:03:39;;;;;;;10.25;9.13;;;21.70;45.90;;;;;;5056244;28;20021;-87
2022/08/29 07:06:06;;;;;;;10.63;9.52;;;21.80;30.10;;;;;;5056222;28;20047;-87
2022/08/29 07:08:32;;;;;;;9.70;8.68;;;21.90;30.10;;;;;;5055821;28;20048;-87
2022/08/29 07:10:58;;;;;;;9.85;8.90;;;22.00;32.70;;;;;;5055943;28;20100;-87
2022/08/29 07:13:24;;;;;;;10.20;8.77;;;22.10;31.80;;;;;;5056014;28;20048;-87
2022/08/29 07:15:50;;;;;;;10.05;9.05;;;22.20;28.30;;;;;;5055998;28;20013;-87
2022/08/29 07:18:16;;;;;;;12.27;9.45;;;22.20;28.70;;;;;;5055796;28;20044;-87
2022/08/29 07:20:42;;;;;;;15.23;8.68;;;22.30;26.30;;;;;;5055855;28;20021;-87
2022/08/29 07:23:08;;;;;;;10.02;8.85;;;22.30;36.20;;;;;;5055556;28;20104;-87
2022/08/29 07:25:34;;;;;;;10.15;8.50;;;22.60;32.70;;;;;;5055748;28;20104;-87
2022/08/29 07:28:00;;;;;;;9.95;8.95;;;22.70;26.90;;;;;;5055728;28;20470;-87
2022/08/29 07:30:26;;;;;;;14.27;8.80;;;22.90;29.10;;;;;;5055387;28;20136;-87
2022/08/29 07:32:52;;;;;;;11.88;8.27;;;22.90;28.80;;;;;;5055620;28;20112;-87
2022/08/29 07:35:18;;;;;;;11.38;8.77;;;23.00;26.80;;;;;;5055704;28;20135;-87
2022/08/29 07:37:44;;;;;;;9.55;8.63;;;23.20;28.60;;;;;;5055220;28;20036;-87
2022/08/29 07:40:12;;;;;;;9.00;8.10;;;23.20;27.20;;;;;;5054457;28;20025;-87
2022/08/29 07:42:38;;;;;;;9.48;8.57;;;23.30;32.20;;;;;;5055528;28;20422;-87
2022/08/29 07:45:07;;;;;;;9.90;8.07;;;23.60;27.20;;;;;;5055447;28;20482;-87
2022/08/29 07:47:33;;;;;;;8.75;7.82;;;23.70;32.30;;;;;;5054107;28;20027;-88
2022/08/29 07:50:00;;;;;;;9.25;8.18;;;23.70;26.40;;;;;;5055369;28;20139;-88
2022/08/29 07:52:28;;;;;;;9.65;8.05;;;23.90;33.10;;;;;;5054944;28;20046;-87
2022/08/29 07:54:54;;;;;;;8.80;7.90;;;24.10;26.60;;;;;;5055230;28;20028;-87
2022/08/29 07:57:20;;;;;;;12.05;8.00;;;24.30;40.50;;;;;;5055290;28;20569;-87
2022/08/29 07:59:46;;;;;;;9.15;8.00;;;24.40;29.30;;;;;;5054315;28;20104;-87
2022/08/29 08:02:12;;;;;;;8.48;7.68;;;24.50;29.10;;;;;;5055114;28;20371;-87
2022/08/29 08:04:37;;;;;;;8.00;7.30;;;24.70;28.60;;;;;;5055158;28;20029;-87
2022/08/29 08:07:03;;;;;;;8.63;7.82;;;24.90;24.20;;;;;;5054690;28;20021;-87
2022/08/29 08:09:29;;;;;;;7.90;7.20;;;25.10;25.70;;;;;;5055049;28;20056;-87
2022/08/29 08:11:54;;;;;;;8.75;7.03;;;25.10;25.80;;;;;;5054896;28;20060;-87
2022/08/29 08:14:20;;;;;;;7.85;7.05;;;25.20;41.50;;;;;;5054781;28;20371;-87
2022/08/29 08:16:45;;;;;;;7.38;6.68;;;25.30;24.00;;;;;;5054865;28;20408;-87
2022/08/29 08:19:13;;;;;;;7.78;7.10;;;25.30;23.00;;;;;;5054962;28;20355;-87
2022/08/29 08:21:39;;;;;;;7.53;6.88;;;25.30;28.90;;;;;;5054348;28;20025;-87
2022/08/29 08:24:06;;;;;;;7.35;6.65;;;25.60;25.00;;;;;;5054899;28;20021;-87
2022/08/29 08:26:31;;;;;;;8.00;7.25;;;25.80;33.20;;;;;;5054609;28;20108;-87
2022/08/29 08:28:58;;;;;;;8.13;6.75;;;25.80;26.20;;;;;;5054605;28;20045;-87
2022/08/29 08:31:23;;;;;;;7.53;6.85;;;26.00;29.20;;;;;;5054608;28;20048;-87
2022/08/29 08:33:50;;;;;;;7.38;6.63;;;25.90;47.80;;;;;;5054516;28;20025;-87
2022/08/29 08:36:22;;;;;;;7.82;7.15;;;25.90;29.30;;;;;;5054250;28;20033;-87
2022/08/29 08:38:49;;;;;;;7.53;6.45;;;26.00;38.10;;;;;;5054382;28;20033;-87
2022/08/29 08:41:34;;;;;;;7.75;7.15;;;26.10;42.00;;;;;;5054430;28;20052;-87
2022/08/29 08:44:03;;;;;;;7.97;6.78;;;26.30;40.70;;;;;;5054260;28;20120;-87
2022/08/29 08:46:43;;;;;;;7.55;6.63;;;26.40;42.10;;;;;;5054877;28;20520;-87
2022/08/29 08:49:19;;;;;;;8.32;7.03;;;26.50;27.10;;;;;;5053830;28;20021;-87
2022/08/29 08:51:55;;;;;;;7.43;6.72;;;26.60;24.00;;;;;;5054003;28;20037;-87
2022/08/29 08:54:26;;;;;;;7.40;6.55;;;26.70;21.60;;;;;;5054256;28;20028;-87
2022/08/29 08:57:08;;;;;;;6.95;6.25;;;26.90;23.40;;;;;;5054065;28;20017;-86
2022/08/29 08:59:38;;;;;;;7.55;6.75;;;26.90;19.60;;;;;;5054306;28;20025;-87
2022/08/29 09:02:32;;;;;;;7.30;6.68;;;27.10;38.80;;;;;;5054263;28;20029;-87
2022/08/29 09:05:28;;;;;;;7.10;6.50;;;27.10;19.30;;;;;;5053639;28;20508;-87
2022/08/29 09:07:54;;;;;;;7.38;6.40;;;27.30;26.30;;;;;;5053963;28;20075;-86
2022/08/29 09:10:44;;;;;;;7.45;6.47;;;27.30;28.20;;;;;;5052918;28;20037;-87
2022/08/29 09:13:13;;;;;;;6.95;6.45;;;27.10;36.00;;;;;;5053927;28;20033;-87
2022/08/29 09:15:47;;;;;;;7.38;6.78;;;27.10;31.40;;;;;;5052227;28;20104;-87
2022/08/29 09:18:33;;;;;;;8.00;6.80;;;27.10;32.80;;;;;;5052147;28;20033;-86
2022/08/29 09:21:00;;;;;;;7.10;6.43;;;27.20;22.30;;;;;;5053562;28;20479;-87
2022/08/29 09:23:44;;;;;;;7.55;6.85;;;27.50;25.00;;;;;;5053695;28;20036;-88
2022/08/29 09:26:10;;;;;;;8.43;7.10;;;27.70;19.40;;;;;;5053716;28;20021;-87
2022/08/29 09:28:36;;;;;;;6.82;6.28;;;27.80;20.70;;;;;;5053717;28;20029;-87
2022/08/29 09:31:17;;;;;;;7.03;6.43;;;27.90;16.90;;;;;;5053036;28;20041;-87
2022/08/29 09:33:51;;;;;;;7.10;6.50;;;27.90;21.10;;;;;;5053169;28;20025;-87
2022/08/29 09:36:49;;;;;;;7.45;6.75;;;27.90;21.80;;;;;;5052241;28;20048;-87
2022/08/29 09:39:20;;;;;;;7.22;6.63;;;28.00;25.30;;;;;;5053415;28;20032;-87
2022/08/29 09:41:52;;;;;;;7.10;6.50;;;28.00;26.20;;;;;;5053276;28;20021;-87
2022/08/29 09:44:31;;;;;;;6.97;6.38;;;28.10;26.20;;;;;;5053081;28;20028;-87
2022/08/29 09:47:19;;;;;;;8.27;6.10;;;28.20;25.10;;;;;;5053221;28;20025;-87
2022/08/29 09:50:03;;;;;;;7.45;6.63;;;28.40;24.80;;;;;;5053059;28;20044;-87
2022/08/29 09:52:29;;;;;;;6.25;5.78;;;28.50;21.60;;;;;;5053074;28;20453;-87
2022/08/29 09:54:56;;;;;;;7.55;6.35;;;28.70;23.60;;;;;;5051548;28;20486;-87
2022/08/29 09:57:26;;;;;;;6.75;6.15;;;29.00;21.30;;;;;;5052836;28;20547;-87
2022/08/29 10:00:15;;;;;;;6.88;6.28;;;29.20;22.90;;;;;;5053768;28;20071;-87
2022/08/29 10:02:53;;;;;;;6.35;5.85;;;29.20;22.30;;;;;;5052633;28;20060;-87
2022/08/29 10:05:35;;;;;;;7.30;6.60;;;31.10;24.80;;;;;;5051615;28;20036;-87
2022/08/29 10:08:04;;;;;;;7.10;6.50;;;36.20;27.80;;;;;;5052803;28;20032;-87
2022/08/29 10:10:35;;;;;;;6.30;5.80;;;39.70;25.40;;;;;;5052379;28;20567;-87
2022/08/29 10:13:12;;;;;;;6.97;6.28;;;42.70;23.10;;;;;;5053047;28;20108;-87
2022/08/29 10:15:50;;;;;;;6.43;5.82;;;43.90;28.30;;;;;;5052553;28;20115;-88
2022/08/29 10:18:45;;;;;;;7.05;5.97;;;44.90;25.50;;;;;;5052583;28;20017;-87
2022/08/29 10:21:33;;;;;;;6.63;6.03;;;43.00;29.90;;;;;;5052609;28;20029;-88
2022/08/29 10:24:20;;;;;;;6.60;6.00;;;44.00;33.80;;;;;;5052710;28;20025;-88
2022/08/29 10:27:14;;;;;;;6.07;5.50;;;44.30;36.60;;;;;;5052779;28;20029;-87
2022/08/29 10:30:04;;;;;;;5.85;5.38;;;46.80;29.40;;;;;;5052315;28;20017;-88
2022/08/29 10:32:34;;;;;;;5.85;5.28;;;47.00;30.00;;;;;;5071822;28;20495;-88
2022/08/29 10:35:29;;;;;;;5.68;5.22;;;48.10;19.30;;;;;;5072338;28;20060;-88
2022/08/29 10:38:21;;;;;;;6.60;5.55;;;47.40;20.10;;;;;;5073087;28;20025;-88
2022/08/29 10:41:01;;;;;;;5.55;5.13;;;47.40;19.30;;;;;;5072752;28;20035;-88
2022/08/29 10:43:43;;;;;;;5.68;5.25;;;48.20;20.80;;;;;;5072678;28;20021;-89
2022/08/29 10:46:36;;;;;;;5.63;5.22;;;48.50;21.20;;;;;;5072196;28;20389;-88
2022/08/29 10:49:19;;;;;;;5.75;5.20;;;47.60;19.50;;;;;;5010221;28;20046;-89
2022/08/29 10:52:11;;;;;;;5.65;5.15;;;46.90;21.00;;;;;;5010309;28;20114;-88
2022/08/29 10:55:01;;;;;;;5.85;5.35;;;46.60;19.00;;;;;;5010498;28;20112;-88
2022/08/29 10:57:54;;;;;;;5.47;5.07;;;47.60;20.20;;;;;;5010748;28;20026;-89
2022/08/29 11:00:23;;;;;;;5.97;5.38;;;47.40;19.70;;;;;;5010223;28;20069;-89
2022/08/29 11:03:02;;;;;;;5.63;5.22;;;47.40;16.10;;;;;;5010311;28;20030;-89
2022/08/29 11:05:34;;;;;;;5.15;4.75;;;50.30;10.60;;;;;;5010417;28;20030;-88
2022/08/29 11:08:26;;;;;;;5.05;4.75;;;49.50;14.60;;;;;;5010438;28;20033;-89
2022/08/29 11:10:52;;;;;;;5.05;4.68;;;50.30;7.50;;;;;;5010008;28;20034;-89
2022/08/29 11:13:49;;;;;;;5.10;4.70;;;51.70;2.10;;;;;;5010190;28;20069;-88
2022/08/29 11:16:18;;;;;;;5.50;5.00;;;51.40;1.20;;;;;;4990304;28;20062;-89
2022/08/29 11:18:53;;;;;;;5.60;5.10;;;50.20;7.50;;;;;;4990902;28;20148;-89
2022/08/29 11:21:34;;;;;;;5.47;4.72;;;49.70;5.70;;;;;;4991470;28;20085;-89
2022/08/29 11:24:02;;;;;;;5.13;4.63;;;50.00;3.70;;;;;;4990847;28;20034;-89
2022/08/29 11:26:43;;;;;;;5.00;4.70;;;50.20;1.00;;;;;;5017521;28;20088;-89
2022/08/29 11:29:33;;;;;;;4.95;4.55;;;48.80;3.30;;;;;;5025257;28;20030;-89
2022/08/29 11:32:26;;;;;;;5.13;4.72;;;48.00;1.00;;;;;;5010260;28;20046;-89
2022/08/29 11:35:26;;;;;;;4.88;4.47;;;47.80;1.00;;;;;;4995886;28;20453;-89
2022/08/29 11:37:54;;;;;;;5.95;4.40;;;48.30;1.00;;;;;;5014599;28;20034;-89
2022/08/29 11:40:34;;;;;;;5.32;4.93;;;48.20;1.00;;;;;;4997396;28;20549;-88
2022/08/29 11:43:01;;;;;;;5.10;4.47;;;47.20;1.00;;;;;;5014499;28;20022;-89
2022/08/29 11:45:35;;;;;;;4.85;4.55;;;46.80;1.00;;;;;;5013880;28;20022;-88
2022/08/29 11:48:15;;;;;;;4.75;4.35;;;46.20;1.70;;;;;;4997485;28;20525;-89
2022/08/29 11:50:41;;;;;;;4.75;4.45;;;46.40;1.00;;;;;;4997234;28;20434;-89
2022/08/29 11:53:12;;;;;;;4.78;4.40;;;47.20;2.80;;;;;;5031373;28;20025;-89
2022/08/29 11:55:41;;;;;;;4.60;4.30;;;46.90;1.00;;;;;;5075797;28;20366;-89
2022/08/29 11:58:26;;;;;;;4.70;4.35;;;46.50;1.00;;;;;;5075142;28;20025;-89
2022/08/29 12:00:57;;;;;;;4.50;4.20;;;45.90;1.00;;;;;;5075331;28;20036;-89
2022/08/29 12:03:31;;;;;;;4.53;4.22;;;45.90;1.00;;;;;;5075175;28;20389;-89
2022/08/29 12:06:22;;;;;;;5.00;4.60;;;45.80;1.00;;;;;;5075420;28;20024;-89
2022/08/29 12:09:07;;;;;;;4.75;4.35;;;47.60;1.00;;;;;;5075002;28;20397;-89
2022/08/29 12:11:57;;;;;;;4.70;4.30;;;48.40;1.00;;;;;;5074899;28;20535;-89
2022/08/29 12:14:42;;;;;;;4.72;4.35;;;47.00;1.00;;;;;;5082853;28;20107;-89
2022/08/29 12:17:28;;;;;;;4.50;4.20;;;47.80;1.00;;;;;;5095402;28;20396;-89
2022/08/29 12:20:00;;;;;;;4.30;3.90;;;45.50;1.00;;;;;;5094735;28;20024;-89
2022/08/29 12:22:55;;;;;;;4.70;4.35;;;47.20;1.00;;;;;;5095054;28;20028;-89
2022/08/29 12:25:26;;;;;;;4.78;4.30;;;48.90;1.00;;;;;;5073610;28;20056;-89
2022/08/29 12:28:03;;;;;;;4.90;4.45;;;49.80;1.00;;;;;;5094773;28;20126;-89
2022/08/29 12:30:38;;;;;;;4.53;4.07;;;50.80;1.00;;;;;;5094761;28;20500;-89
2022/08/29 12:33:16;;;;;;;4.95;4.55;;;49.70;1.00;;;;;;5095013;28;20438;-89
2022/08/29 12:35:54;;;;;;;4.88;4.30;;;46.60;1.00;;;;;;5094818;28;20024;-89
2022/08/29 12:38:57;;;;;;;4.60;4.20;;;45.50;1.00;;;;;;5094667;28;20111;-89
2022/08/29 12:41:37;;;;;;;4.70;4.30;;;47.00;1.00;;;;;;5094554;28;20039;-89
2022/08/29 12:44:09;;;;;;;5.15;4.07;;;46.50;1.00;;;;;;5094751;28;20054;-89
2022/08/29 12:46:39;;;;;;;4.45;4.15;;;48.00;1.00;;;;;;5076455;28;20429;-89
2022/08/29 12:49:33;;;;;;;6.70;4.20;;;47.50;1.00;;;;;;5094630;28;20150;-89
2022/08/29 12:52:04;;;;;;;4.35;4.05;;;47.90;1.00;;;;;;5094440;28;20469;-88
2022/08/29 12:54:34;;;;;;;3.97;3.67;;;48.50;1.00;;;;;;5094388;28;20028;-89
2022/08/29 12:57:01;;;;;;;5.50;3.90;;;49.90;1.00;;;;;;5093973;28;20035;-89
2022/08/29 12:59:27;;;;;;;4.53;4.13;;;46.70;1.00;;;;;;5094358;28;20028;-89
2022/08/29 13:01:55;;;;;;;6.35;3.65;;;47.60;1.00;;;;;;5094316;28;20095;-89
2022/08/29 13:04:31;;;;;;;4.00;3.70;;;48.50;1.00;;;;;;5076057;28;20020;-88